sensor_id;sensor_type;location;lat;lon;timestamp;temperature;humidity
53310;DHT22;39197;53.200;5.792;2023-04-25T00:00:26;6.80;99.90
53310;DHT22;39197;53.200;5.792;2023-04-25T00:02:52;6.80;99.90
53310;DHT22;39197;53.200;5.792;2023-04-25T00:05:17;6.80;99.90
53310;DHT22;39197;53.200;5.792;2023-04-25T00:07:44;6.80;99.90
53310;DHT22;39197;53.200;5.792;2023-04-25T00:10:10;6.80;99.90
53310;DHT22;39197;53.200;5.792;2023-04-25T00:12:38;6.80;99.90
53310;DHT22;39197;53.200;5.792;2023-04-25T00:15:05;6.80;99.90
53310;DHT22;39197;53.200;5.792;2023-04-25T00:17:30;6.80;99.90
53310;DHT22;39197;53.200;5.792;2023-04-25T00:19:56;6.80;99.90
53310;DHT22;39197;53.200;5.792;2023-04-25T00:22:23;6.80;99.90
53310;DHT22;39197;53.200;5.792;2023-04-25T00:24:49;6.80;99.90
53310;DHT22;39197;53.200;5.792;2023-04-25T00:27:15;6.80;99.90
53310;DHT22;39197;53.200;5.792;2023-04-25T00:29:41;6.80;99.90
53310;DHT22;39197;53.200;5.792;2023-04-25T00:32:06;6.80;99.90
53310;DHT22;39197;53.200;5.792;2023-04-25T00:34:32;6.80;99.90
53310;DHT22;39197;53.200;5.792;2023-04-25T00:36:58;6.70;99.90
53310;DHT22;39197;53.200;5.792;2023-04-25T00:39:23;6.70;99.90
53310;DHT22;39197;53.200;5.792;2023-04-25T00:41:50;6.70;99.90
53310;DHT22;39197;53.200;5.792;2023-04-25T00:44:18;6.60;99.90
53310;DHT22;39197;53.200;5.792;2023-04-25T00:46:47;6.60;99.90
53310;DHT22;39197;53.200;5.792;2023-04-25T00:49:12;6.70;99.90
53310;DHT22;39197;53.200;5.792;2023-04-25T00:51:41;6.70;99.90
53310;DHT22;39197;53.200;5.792;2023-04-25T00:54:07;6.70;99.90
53310;DHT22;39197;53.200;5.792;2023-04-25T00:56:32;6.70;99.90
53310;DHT22;39197;53.200;5.792;2023-04-25T00:58:58;6.70;99.90
53310;DHT22;39197;53.200;5.792;2023-04-25T01:01:24;6.70;99.90
53310;DHT22;39197;53.200;5.792;2023-04-25T01:03:50;6.70;99.90
53310;DHT22;39197;53.200;5.792;2023-04-25T01:06:16;6.70;99.90
53310;DHT22;39197;53.200;5.792;2023-04-25T01:08:42;6.70;99.90
53310;DHT22;39197;53.200;5.792;2023-04-25T01:11:08;6.70;99.90
53310;DHT22;39197;53.200;5.792;2023-04-25T01:13:34;6.70;99.90
53310;DHT22;39197;53.200;5.792;2023-04-25T01:16:01;6.70;99.90
53310;DHT22;39197;53.200;5.792;2023-04-25T01:18:27;6.60;99.90
53310;DHT22;39197;53.200;5.792;2023-04-25T01:20:53;6.60;99.90
53310;DHT22;39197;53.200;5.792;2023-04-25T01:23:21;6.50;99.90
53310;DHT22;39197;53.200;5.792;2023-04-25T01:25:50;6.50;99.90
53310;DHT22;39197;53.200;5.792;2023-04-25T01:28:16;6.40;99.90
53310;DHT22;39197;53.200;5.792;2023-04-25T01:30:42;6.30;99.90
53310;DHT22;39197;53.200;5.792;2023-04-25T01:33:08;6.20;99.90
53310;DHT22;39197;53.200;5.792;2023-04-25T01:35:34;6.10;99.90
53310;DHT22;39197;53.200;5.792;2023-04-25T01:38:00;6.10;99.90
53310;DHT22;39197;53.200;5.792;2023-04-25T01:40:27;6.00;99.90
53310;DHT22;39197;53.200;5.792;2023-04-25T01:42:53;6.00;99.90
53310;DHT22;39197;53.200;5.792;2023-04-25T01:45:19;6.00;99.90
53310;DHT22;39197;53.200;5.792;2023-04-25T01:47:44;6.10;99.90
53310;DHT22;39197;53.200;5.792;2023-04-25T01:50:14;6.00;99.90
53310;DHT22;39197;53.200;5.792;2023-04-25T01:52:40;6.00;99.90
53310;DHT22;39197;53.200;5.792;2023-04-25T01:55:06;6.00;99.90
53310;DHT22;39197;53.200;5.792;2023-04-25T01:57:32;6.00;99.90
53310;DHT22;39197;53.200;5.792;2023-04-25T01:59:59;6.00;99.90
53310;DHT22;39197;53.200;5.792;2023-04-25T02:02:25;6.00;99.90
53310;DHT22;39197;53.200;5.792;2023-04-25T02:04:51;6.00;99.90
53310;DHT22;39197;53.200;5.792;2023-04-25T02:07:17;6.00;99.90
53310;DHT22;39197;53.200;5.792;2023-04-25T02:09:42;6.00;99.90
53310;DHT22;39197;53.200;5.792;2023-04-25T02:12:10;5.90;99.90
53310;DHT22;39197;53.200;5.792;2023-04-25T02:14:35;5.90;99.90
53310;DHT22;39197;53.200;5.792;2023-04-25T02:17:01;5.90;99.90
53310;DHT22;39197;53.200;5.792;2023-04-25T02:19:27;5.90;99.90
53310;DHT22;39197;53.200;5.792;2023-04-25T02:21:53;5.90;99.90
53310;DHT22;39197;53.200;5.792;2023-04-25T02:24:18;5.90;99.90
53310;DHT22;39197;53.200;5.792;2023-04-25T02:26:44;5.90;99.90
53310;DHT22;39197;53.200;5.792;2023-04-25T02:29:10;5.90;99.90
53310;DHT22;39197;53.200;5.792;2023-04-25T02:31:35;5.90;99.90
53310;DHT22;39197;53.200;5.792;2023-04-25T02:34:01;5.90;99.90
53310;DHT22;39197;53.200;5.792;2023-04-25T02:36:26;5.90;99.90
53310;DHT22;39197;53.200;5.792;2023-04-25T02:38:52;5.90;99.90
53310;DHT22;39197;53.200;5.792;2023-04-25T02:41:18;5.90;99.90
53310;DHT22;39197;53.200;5.792;2023-04-25T02:43:44;5.80;99.90
53310;DHT22;39197;53.200;5.792;2023-04-25T02:46:09;5.80;99.90
53310;DHT22;39197;53.200;5.792;2023-04-25T02:48:35;5.80;99.90
53310;DHT22;39197;53.200;5.792;2023-04-25T02:51:00;5.70;99.90
53310;DHT22;39197;53.200;5.792;2023-04-25T02:53:26;5.70;99.90
53310;DHT22;39197;53.200;5.792;2023-04-25T02:55:51;5.70;99.90
53310;DHT22;39197;53.200;5.792;2023-04-25T02:58:18;5.80;99.90
53310;DHT22;39197;53.200;5.792;2023-04-25T03:00:43;5.80;99.90
53310;DHT22;39197;53.200;5.792;2023-04-25T03:03:09;5.80;99.90
53310;DHT22;39197;53.200;5.792;2023-04-25T03:05:35;5.80;99.90
53310;DHT22;39197;53.200;5.792;2023-04-25T03:08:00;5.80;99.90
53310;DHT22;39197;53.200;5.792;2023-04-25T03:10:26;5.80;99.90
53310;DHT22;39197;53.200;5.792;2023-04-25T03:12:51;5.80;99.90
53310;DHT22;39197;53.200;5.792;2023-04-25T03:15:17;5.80;99.90
53310;DHT22;39197;53.200;5.792;2023-04-25T03:17:44;5.90;99.90
53310;DHT22;39197;53.200;5.792;2023-04-25T03:20:10;5.90;99.90
53310;DHT22;39197;53.200;5.792;2023-04-25T03:22:36;6.00;99.90
53310;DHT22;39197;53.200;5.792;2023-04-25T03:25:01;6.00;99.90
53310;DHT22;39197;53.200;5.792;2023-04-25T03:27:27;6.00;99.90
53310;DHT22;39197;53.200;5.792;2023-04-25T03:29:52;5.90;99.90
53310;DHT22;39197;53.200;5.792;2023-04-25T03:32:18;5.90;99.90
53310;DHT22;39197;53.200;5.792;2023-04-25T03:34:43;5.80;99.90
53310;DHT22;39197;53.200;5.792;2023-04-25T03:37:09;5.90;99.90
53310;DHT22;39197;53.200;5.792;2023-04-25T03:39:34;5.90;99.90
53310;DHT22;39197;53.200;5.792;2023-04-25T03:42:00;5.90;99.90
53310;DHT22;39197;53.200;5.792;2023-04-25T03:44:26;5.90;99.90
53310;DHT22;39197;53.200;5.792;2023-04-25T03:46:51;5.90;99.90
53310;DHT22;39197;53.200;5.792;2023-04-25T03:49:17;5.90;99.90
53310;DHT22;39197;53.200;5.792;2023-04-25T03:51:43;5.90;99.90
53310;DHT22;39197;53.200;5.792;2023-04-25T03:54:08;5.90;99.90
53310;DHT22;39197;53.200;5.792;2023-04-25T03:56:34;5.80;99.90
53310;DHT22;39197;53.200;5.792;2023-04-25T03:59:00;5.80;99.90
53310;DHT22;39197;53.200;5.792;2023-04-25T04:01:25;5.80;99.90
53310;DHT22;39197;53.200;5.792;2023-04-25T04:03:51;5.70;99.90
53310;DHT22;39197;53.200;5.792;2023-04-25T04:06:17;5.70;99.90
53310;DHT22;39197;53.200;5.792;2023-04-25T04:08:42;5.60;99.90
53310;DHT22;39197;53.200;5.792;2023-04-25T04:11:08;5.60;99.90
53310;DHT22;39197;53.200;5.792;2023-04-25T04:13:33;5.50;99.90
53310;DHT22;39197;53.200;5.792;2023-04-25T04:15:59;5.60;99.90
53310;DHT22;39197;53.200;5.792;2023-04-25T04:18:24;5.60;99.90
53310;DHT22;39197;53.200;5.792;2023-04-25T04:20:50;5.60;99.90
53310;DHT22;39197;53.200;5.792;2023-04-25T04:23:16;5.60;99.90
53310;DHT22;39197;53.200;5.792;2023-04-25T04:25:41;5.70;99.90
53310;DHT22;39197;53.200;5.792;2023-04-25T04:28:07;5.70;99.90
53310;DHT22;39197;53.200;5.792;2023-04-25T04:30:33;5.70;99.90
53310;DHT22;39197;53.200;5.792;2023-04-25T04:33:01;5.70;99.90
53310;DHT22;39197;53.200;5.792;2023-04-25T04:35:27;5.80;99.90
53310;DHT22;39197;53.200;5.792;2023-04-25T04:37:53;5.70;99.90
53310;DHT22;39197;53.200;5.792;2023-04-25T04:40:20;5.70;99.90
53310;DHT22;39197;53.200;5.792;2023-04-25T04:42:45;5.80;99.90
53310;DHT22;39197;53.200;5.792;2023-04-25T04:45:11;5.70;99.90
53310;DHT22;39197;53.200;5.792;2023-04-25T04:47:37;5.80;99.90
53310;DHT22;39197;53.200;5.792;2023-04-25T04:50:08;5.70;99.90
53310;DHT22;39197;53.200;5.792;2023-04-25T04:52:38;5.70;99.90
53310;DHT22;39197;53.200;5.792;2023-04-25T04:55:04;5.70;99.90
53310;DHT22;39197;53.200;5.792;2023-04-25T04:57:31;5.70;99.90
53310;DHT22;39197;53.200;5.792;2023-04-25T04:59:58;5.70;99.90
53310;DHT22;39197;53.200;5.792;2023-04-25T05:02:24;5.80;99.90
53310;DHT22;39197;53.200;5.792;2023-04-25T05:04:49;5.80;99.90
53310;DHT22;39197;53.200;5.792;2023-04-25T05:07:17;5.80;99.90
53310;DHT22;39197;53.200;5.792;2023-04-25T05:09:42;5.80;99.90
53310;DHT22;39197;53.200;5.792;2023-04-25T05:12:08;5.80;99.90
53310;DHT22;39197;53.200;5.792;2023-04-25T05:14:33;5.80;99.90
53310;DHT22;39197;53.200;5.792;2023-04-25T05:17:00;5.90;99.90
53310;DHT22;39197;53.200;5.792;2023-04-25T05:19:25;5.80;99.90
53310;DHT22;39197;53.200;5.792;2023-04-25T05:21:52;5.90;99.90
53310;DHT22;39197;53.200;5.792;2023-04-25T05:24:17;5.80;99.90
53310;DHT22;39197;53.200;5.792;2023-04-25T05:26:43;5.90;99.90
53310;DHT22;39197;53.200;5.792;2023-04-25T05:29:08;5.90;99.90
53310;DHT22;39197;53.200;5.792;2023-04-25T05:31:36;5.90;99.90
53310;DHT22;39197;53.200;5.792;2023-04-25T05:34:02;6.00;99.90
53310;DHT22;39197;53.200;5.792;2023-04-25T05:36:28;6.10;99.90
53310;DHT22;39197;53.200;5.792;2023-04-25T05:38:53;6.10;99.90
53310;DHT22;39197;53.200;5.792;2023-04-25T05:41:19;6.10;99.90
53310;DHT22;39197;53.200;5.792;2023-04-25T05:43:45;6.10;99.90
53310;DHT22;39197;53.200;5.792;2023-04-25T05:46:14;6.20;99.90
53310;DHT22;39197;53.200;5.792;2023-04-25T05:48:40;6.10;99.90
53310;DHT22;39197;53.200;5.792;2023-04-25T05:51:05;6.10;99.90
53310;DHT22;39197;53.200;5.792;2023-04-25T05:53:31;6.20;99.90
53310;DHT22;39197;53.200;5.792;2023-04-25T05:55:56;6.00;99.90
53310;DHT22;39197;53.200;5.792;2023-04-25T05:58:22;6.00;99.90
53310;DHT22;39197;53.200;5.792;2023-04-25T06:00:48;5.80;99.90
53310;DHT22;39197;53.200;5.792;2023-04-25T06:03:13;5.80;99.90
53310;DHT22;39197;53.200;5.792;2023-04-25T06:05:42;5.70;99.90
53310;DHT22;39197;53.200;5.792;2023-04-25T06:08:08;5.60;99.90
53310;DHT22;39197;53.200;5.792;2023-04-25T06:10:34;5.70;99.90
53310;DHT22;39197;53.200;5.792;2023-04-25T06:12:59;5.60;99.90
53310;DHT22;39197;53.200;5.792;2023-04-25T06:15:25;5.60;99.90
53310;DHT22;39197;53.200;5.792;2023-04-25T06:17:51;5.70;99.90
53310;DHT22;39197;53.200;5.792;2023-04-25T06:20:16;5.70;99.90
53310;DHT22;39197;53.200;5.792;2023-04-25T06:22:42;5.90;99.90
53310;DHT22;39197;53.200;5.792;2023-04-25T06:25:07;6.00;99.90
53310;DHT22;39197;53.200;5.792;2023-04-25T06:27:33;6.20;99.90
53310;DHT22;39197;53.200;5.792;2023-04-25T06:29:59;6.40;99.90
53310;DHT22;39197;53.200;5.792;2023-04-25T06:32:25;6.70;99.90
53310;DHT22;39197;53.200;5.792;2023-04-25T06:34:53;6.80;99.90
53310;DHT22;39197;53.200;5.792;2023-04-25T06:37:18;7.00;99.90
53310;DHT22;39197;53.200;5.792;2023-04-25T06:39:44;7.10;99.90
53310;DHT22;39197;53.200;5.792;2023-04-25T06:42:09;7.20;99.90
53310;DHT22;39197;53.200;5.792;2023-04-25T06:44:35;7.20;99.90
53310;DHT22;39197;53.200;5.792;2023-04-25T06:47:01;6.90;99.90
53310;DHT22;39197;53.200;5.792;2023-04-25T06:49:26;6.60;99.90
53310;DHT22;39197;53.200;5.792;2023-04-25T06:51:52;6.50;99.90
53310;DHT22;39197;53.200;5.792;2023-04-25T06:54:17;6.50;99.90
53310;DHT22;39197;53.200;5.792;2023-04-25T06:56:43;6.50;99.90
53310;DHT22;39197;53.200;5.792;2023-04-25T06:59:09;6.80;99.90
53310;DHT22;39197;53.200;5.792;2023-04-25T07:01:34;7.30;99.90
53310;DHT22;39197;53.200;5.792;2023-04-25T07:04:00;7.80;99.90
53310;DHT22;39197;53.200;5.792;2023-04-25T07:06:26;7.90;99.90
53310;DHT22;39197;53.200;5.792;2023-04-25T07:08:53;7.80;99.90
53310;DHT22;39197;53.200;5.792;2023-04-25T07:11:18;7.80;99.90
53310;DHT22;39197;53.200;5.792;2023-04-25T07:13:44;7.60;99.90
53310;DHT22;39197;53.200;5.792;2023-04-25T07:16:10;7.70;99.90
53310;DHT22;39197;53.200;5.792;2023-04-25T07:18:36;7.70;99.90
53310;DHT22;39197;53.200;5.792;2023-04-25T07:21:01;7.70;99.90
53310;DHT22;39197;53.200;5.792;2023-04-25T07:23:27;7.60;99.90
53310;DHT22;39197;53.200;5.792;2023-04-25T07:25:52;7.40;99.90
53310;DHT22;39197;53.200;5.792;2023-04-25T07:28:18;7.80;99.90
53310;DHT22;39197;53.200;5.792;2023-04-25T07:30:44;8.60;99.90
53310;DHT22;39197;53.200;5.792;2023-04-25T07:33:09;9.40;99.90
53310;DHT22;39197;53.200;5.792;2023-04-25T07:35:35;10.10;99.90
53310;DHT22;39197;53.200;5.792;2023-04-25T07:38:02;10.20;99.90
53310;DHT22;39197;53.200;5.792;2023-04-25T07:40:27;10.30;99.90
53310;DHT22;39197;53.200;5.792;2023-04-25T07:42:53;10.00;99.90
53310;DHT22;39197;53.200;5.792;2023-04-25T07:45:18;10.30;99.90
53310;DHT22;39197;53.200;5.792;2023-04-25T07:47:44;10.20;99.90
53310;DHT22;39197;53.200;5.792;2023-04-25T07:50:10;10.60;99.90
53310;DHT22;39197;53.200;5.792;2023-04-25T07:52:36;10.30;99.90
53310;DHT22;39197;53.200;5.792;2023-04-25T07:55:02;11.10;99.90
53310;DHT22;39197;53.200;5.792;2023-04-25T07:57:28;10.70;99.90
53310;DHT22;39197;53.200;5.792;2023-04-25T07:59:54;10.60;99.90
53310;DHT22;39197;53.200;5.792;2023-04-25T08:02:20;10.70;99.90
53310;DHT22;39197;53.200;5.792;2023-04-25T08:04:45;10.50;99.90
53310;DHT22;39197;53.200;5.792;2023-04-25T08:07:11;10.10;99.90
53310;DHT22;39197;53.200;5.792;2023-04-25T08:09:37;9.80;99.90
53310;DHT22;39197;53.200;5.792;2023-04-25T08:12:03;9.80;99.90
53310;DHT22;39197;53.200;5.792;2023-04-25T08:14:30;9.90;99.90
53310;DHT22;39197;53.200;5.792;2023-04-25T08:17:02;10.00;99.90
53310;DHT22;39197;53.200;5.792;2023-04-25T08:19:29;9.50;99.90
53310;DHT22;39197;53.200;5.792;2023-04-25T08:21:55;9.60;99.90
53310;DHT22;39197;53.200;5.792;2023-04-25T08:24:22;9.20;99.90
53310;DHT22;39197;53.200;5.792;2023-04-25T08:26:48;9.10;99.90
53310;DHT22;39197;53.200;5.792;2023-04-25T08:29:13;9.50;99.90
53310;DHT22;39197;53.200;5.792;2023-04-25T08:31:39;10.00;99.90
53310;DHT22;39197;53.200;5.792;2023-04-25T08:34:05;10.00;99.90
53310;DHT22;39197;53.200;5.792;2023-04-25T08:36:31;9.60;99.90
53310;DHT22;39197;53.200;5.792;2023-04-25T08:38:57;9.30;99.90
53310;DHT22;39197;53.200;5.792;2023-04-25T08:41:23;9.20;99.90
53310;DHT22;39197;53.200;5.792;2023-04-25T08:43:49;9.00;99.90
53310;DHT22;39197;53.200;5.792;2023-04-25T08:46:18;9.10;99.90
53310;DHT22;39197;53.200;5.792;2023-04-25T08:48:45;9.60;99.90
53310;DHT22;39197;53.200;5.792;2023-04-25T08:51:20;10.10;99.90
53310;DHT22;39197;53.200;5.792;2023-04-25T08:53:47;10.50;99.90
53310;DHT22;39197;53.200;5.792;2023-04-25T08:56:16;11.50;99.90
53310;DHT22;39197;53.200;5.792;2023-04-25T08:58:43;11.60;99.90
53310;DHT22;39197;53.200;5.792;2023-04-25T09:01:11;12.10;99.90
53310;DHT22;39197;53.200;5.792;2023-04-25T09:03:37;12.90;99.90
53310;DHT22;39197;53.200;5.792;2023-04-25T09:06:03;13.10;99.90
53310;DHT22;39197;53.200;5.792;2023-04-25T09:08:29;13.00;99.90
53310;DHT22;39197;53.200;5.792;2023-04-25T09:10:55;11.80;99.90
53310;DHT22;39197;53.200;5.792;2023-04-25T09:13:26;11.50;99.90
53310;DHT22;39197;53.200;5.792;2023-04-25T09:15:53;11.30;99.90
53310;DHT22;39197;53.200;5.792;2023-04-25T09:20:55;10.80;99.90
53310;DHT22;39197;53.200;5.792;2023-04-25T09:23:22;10.50;99.90
53310;DHT22;39197;53.200;5.792;2023-04-25T09:25:53;10.00;99.90
53310;DHT22;39197;53.200;5.792;2023-04-25T09:28:26;9.60;99.90
53310;DHT22;39197;53.200;5.792;2023-04-25T09:30:58;9.80;99.90
53310;DHT22;39197;53.200;5.792;2023-04-25T09:33:31;9.70;99.90
53310;DHT22;39197;53.200;5.792;2023-04-25T09:36:08;9.90;99.90
53310;DHT22;39197;53.200;5.792;2023-04-25T09:38:44;9.90;99.90
53310;DHT22;39197;53.200;5.792;2023-04-25T09:41:11;9.80;99.90
53310;DHT22;39197;53.200;5.792;2023-04-25T09:43:38;9.60;99.90
53310;DHT22;39197;53.200;5.792;2023-04-25T09:46:10;9.60;99.90
53310;DHT22;39197;53.200;5.792;2023-04-25T09:48:37;9.70;99.90
53310;DHT22;39197;53.200;5.792;2023-04-25T09:51:09;9.80;99.90
53310;DHT22;39197;53.200;5.792;2023-04-25T09:53:40;9.70;99.90
53310;DHT22;39197;53.200;5.792;2023-04-25T09:56:10;9.90;99.90
53310;DHT22;39197;53.200;5.792;2023-04-25T09:58:40;9.80;99.90
53310;DHT22;39197;53.200;5.792;2023-04-25T10:01:10;9.90;99.90
53310;DHT22;39197;53.200;5.792;2023-04-25T10:03:44;10.10;99.90
53310;DHT22;39197;53.200;5.792;2023-04-25T10:06:19;9.90;99.90
53310;DHT22;39197;53.200;5.792;2023-04-25T10:08:45;9.80;99.90
53310;DHT22;39197;53.200;5.792;2023-04-25T10:11:14;9.30;99.90
53310;DHT22;39197;53.200;5.792;2023-04-25T10:13:41;9.10;99.90
53310;DHT22;39197;53.200;5.792;2023-04-25T10:16:09;9.70;99.90
53310;DHT22;39197;53.200;5.792;2023-04-25T10:18:35;10.10;99.90
53310;DHT22;39197;53.200;5.792;2023-04-25T10:21:04;11.10;99.90
53310;DHT22;39197;53.200;5.792;2023-04-25T10:23:34;11.90;99.90
53310;DHT22;39197;53.200;5.792;2023-04-25T10:26:00;12.40;99.90
53310;DHT22;39197;53.200;5.792;2023-04-25T10:28:26;12.70;99.90
53310;DHT22;39197;53.200;5.792;2023-04-25T10:31:01;12.40;99.90
53310;DHT22;39197;53.200;5.792;2023-04-25T10:33:38;12.00;99.90
53310;DHT22;39197;53.200;5.792;2023-04-25T10:36:12;11.50;99.90
53310;DHT22;39197;53.200;5.792;2023-04-25T10:38:38;10.30;99.90
53310;DHT22;39197;53.200;5.792;2023-04-25T10:41:06;9.90;99.90
53310;DHT22;39197;53.200;5.792;2023-04-25T10:43:35;9.80;99.90
53310;DHT22;39197;53.200;5.792;2023-04-25T10:46:02;9.60;99.90
53310;DHT22;39197;53.200;5.792;2023-04-25T10:48:31;9.10;99.90
53310;DHT22;39197;53.200;5.792;2023-04-25T10:51:28;9.20;99.90
53310;DHT22;39197;53.200;5.792;2023-04-25T10:54:05;10.00;99.90
53310;DHT22;39197;53.200;5.792;2023-04-25T10:56:38;11.20;99.90
53310;DHT22;39197;53.200;5.792;2023-04-25T10:59:16;11.90;99.90
53310;DHT22;39197;53.200;5.792;2023-04-25T11:01:43;12.70;99.90
53310;DHT22;39197;53.200;5.792;2023-04-25T11:09:30;13.40;99.90
53310;DHT22;39197;53.200;5.792;2023-04-25T11:11:59;13.90;99.90
53310;DHT22;39197;53.200;5.792;2023-04-25T11:14:26;13.80;99.90
53310;DHT22;39197;53.200;5.792;2023-04-25T11:16:56;14.00;99.90
53310;DHT22;39197;53.200;5.792;2023-04-25T11:19:23;14.00;99.90
53310;DHT22;39197;53.200;5.792;2023-04-25T11:21:50;14.70;99.90
53310;DHT22;39197;53.200;5.792;2023-04-25T11:24:16;14.40;99.90
53310;DHT22;39197;53.200;5.792;2023-04-25T11:26:43;13.80;99.90
53310;DHT22;39197;53.200;5.792;2023-04-25T11:29:09;13.90;99.90
53310;DHT22;39197;53.200;5.792;2023-04-25T11:31:34;12.40;99.90
53310;DHT22;39197;53.200;5.792;2023-04-25T11:34:00;12.50;99.90
53310;DHT22;39197;53.200;5.792;2023-04-25T11:36:26;12.30;99.90
53310;DHT22;39197;53.200;5.792;2023-04-25T11:38:52;12.00;99.90
53310;DHT22;39197;53.200;5.792;2023-04-25T11:41:21;11.60;99.90
53310;DHT22;39197;53.200;5.792;2023-04-25T11:43:48;11.30;99.90
53310;DHT22;39197;53.200;5.792;2023-04-25T11:46:15;11.00;99.90
53310;DHT22;39197;53.200;5.792;2023-04-25T11:48:41;11.60;99.90
53310;DHT22;39197;53.200;5.792;2023-04-25T11:51:08;11.90;99.90
53310;DHT22;39197;53.200;5.792;2023-04-25T11:53:33;12.20;99.90
53310;DHT22;39197;53.200;5.792;2023-04-25T11:55:59;12.90;99.90
53310;DHT22;39197;53.200;5.792;2023-04-25T11:58:26;13.10;99.90
53310;DHT22;39197;53.200;5.792;2023-04-25T12:00:52;13.10;99.90
53310;DHT22;39197;53.200;5.792;2023-04-25T12:03:18;12.70;99.90
53310;DHT22;39197;53.200;5.792;2023-04-25T12:05:45;12.10;99.90
53310;DHT22;39197;53.200;5.792;2023-04-25T12:08:15;12.00;99.90
53310;DHT22;39197;53.200;5.792;2023-04-25T12:10:45;11.90;99.90
53310;DHT22;39197;53.200;5.792;2023-04-25T12:13:19;12.50;99.90
53310;DHT22;39197;53.200;5.792;2023-04-25T12:15:45;13.00;99.90
53310;DHT22;39197;53.200;5.792;2023-04-25T12:18:11;12.80;99.90
53310;DHT22;39197;53.200;5.792;2023-04-25T12:20:36;13.20;99.90
53310;DHT22;39197;53.200;5.792;2023-04-25T12:23:05;13.30;99.90
53310;DHT22;39197;53.200;5.792;2023-04-25T12:25:43;13.30;99.90
53310;DHT22;39197;53.200;5.792;2023-04-25T12:28:21;14.00;99.90
53310;DHT22;39197;53.200;5.792;2023-04-25T12:31:02;14.40;99.90
53310;DHT22;39197;53.200;5.792;2023-04-25T12:33:31;13.50;99.90
53310;DHT22;39197;53.200;5.792;2023-04-25T12:35:57;13.80;99.90
53310;DHT22;39197;53.200;5.792;2023-04-25T12:40:51;13.80;99.90
53310;DHT22;39197;53.200;5.792;2023-04-25T12:43:16;13.80;99.90
53310;DHT22;39197;53.200;5.792;2023-04-25T12:45:43;13.50;99.90
53310;DHT22;39197;53.200;5.792;2023-04-25T12:48:09;13.30;99.90
53310;DHT22;39197;53.200;5.792;2023-04-25T12:50:35;14.00;99.90
53310;DHT22;39197;53.200;5.792;2023-04-25T12:53:01;13.30;99.90
53310;DHT22;39197;53.200;5.792;2023-04-25T12:55:26;13.20;99.90
53310;DHT22;39197;53.200;5.792;2023-04-25T12:57:52;13.60;99.90
53310;DHT22;39197;53.200;5.792;2023-04-25T13:00:18;13.10;99.90
53310;DHT22;39197;53.200;5.792;2023-04-25T13:02:45;13.10;99.90
53310;DHT22;39197;53.200;5.792;2023-04-25T13:05:12;12.50;99.90
53310;DHT22;39197;53.200;5.792;2023-04-25T13:07:38;12.00;99.90
53310;DHT22;39197;53.200;5.792;2023-04-25T13:10:05;11.70;99.90
53310;DHT22;39197;53.200;5.792;2023-04-25T13:12:31;11.60;99.90
53310;DHT22;39197;53.200;5.792;2023-04-25T13:14:57;11.80;99.90
53310;DHT22;39197;53.200;5.792;2023-04-25T13:17:22;12.30;99.90
53310;DHT22;39197;53.200;5.792;2023-04-25T13:19:48;12.90;99.90
53310;DHT22;39197;53.200;5.792;2023-04-25T13:22:14;13.00;99.90
53310;DHT22;39197;53.200;5.792;2023-04-25T13:24:42;13.60;99.90
53310;DHT22;39197;53.200;5.792;2023-04-25T13:27:08;13.50;99.90
53310;DHT22;39197;53.200;5.792;2023-04-25T13:29:34;13.30;99.90
53310;DHT22;39197;53.200;5.792;2023-04-25T13:32:03;13.20;99.90
53310;DHT22;39197;53.200;5.792;2023-04-25T13:34:29;13.70;99.90
53310;DHT22;39197;53.200;5.792;2023-04-25T13:36:55;14.00;99.90
53310;DHT22;39197;53.200;5.792;2023-04-25T13:39:20;14.60;99.10
53310;DHT22;39197;53.200;5.792;2023-04-25T13:41:46;14.10;98.40
53310;DHT22;39197;53.200;5.792;2023-04-25T13:44:18;14.00;99.40
53310;DHT22;39197;53.200;5.792;2023-04-25T13:46:44;14.30;99.90
53310;DHT22;39197;53.200;5.792;2023-04-25T13:49:10;14.10;99.90
53310;DHT22;39197;53.200;5.792;2023-04-25T13:51:36;13.40;99.90
53310;DHT22;39197;53.200;5.792;2023-04-25T13:54:02;12.50;99.90
53310;DHT22;39197;53.200;5.792;2023-04-25T13:56:27;12.60;99.90
53310;DHT22;39197;53.200;5.792;2023-04-25T13:58:53;11.90;99.90
53310;DHT22;39197;53.200;5.792;2023-04-25T14:01:19;11.30;99.90
53310;DHT22;39197;53.200;5.792;2023-04-25T14:03:47;11.20;99.90
53310;DHT22;39197;53.200;5.792;2023-04-25T14:06:12;10.90;99.90
53310;DHT22;39197;53.200;5.792;2023-04-25T14:08:39;11.40;99.90
53310;DHT22;39197;53.200;5.792;2023-04-25T14:11:04;11.30;99.90
53310;DHT22;39197;53.200;5.792;2023-04-25T14:13:30;11.00;99.90
53310;DHT22;39197;53.200;5.792;2023-04-25T14:15:56;11.10;99.90
53310;DHT22;39197;53.200;5.792;2023-04-25T14:18:22;11.00;99.90
53310;DHT22;39197;53.200;5.792;2023-04-25T14:20:48;10.60;99.90
53310;DHT22;39197;53.200;5.792;2023-04-25T14:23:13;10.40;99.90
53310;DHT22;39197;53.200;5.792;2023-04-25T14:25:39;10.10;99.90
53310;DHT22;39197;53.200;5.792;2023-04-25T14:28:05;10.50;99.90
53310;DHT22;39197;53.200;5.792;2023-04-25T14:30:31;11.00;99.90
53310;DHT22;39197;53.200;5.792;2023-04-25T14:32:57;10.80;99.90
53310;DHT22;39197;53.200;5.792;2023-04-25T14:35:22;10.70;99.90
53310;DHT22;39197;53.200;5.792;2023-04-25T14:37:48;10.30;99.90
53310;DHT22;39197;53.200;5.792;2023-04-25T14:40:14;10.10;99.90
53310;DHT22;39197;53.200;5.792;2023-04-25T14:42:41;10.20;99.90
53310;DHT22;39197;53.200;5.792;2023-04-25T14:45:07;10.20;99.90
53310;DHT22;39197;53.200;5.792;2023-04-25T14:47:34;10.30;99.90
53310;DHT22;39197;53.200;5.792;2023-04-25T14:50:01;10.30;99.90
53310;DHT22;39197;53.200;5.792;2023-04-25T14:52:27;10.50;99.90
53310;DHT22;39197;53.200;5.792;2023-04-25T14:54:52;10.30;99.90
53310;DHT22;39197;53.200;5.792;2023-04-25T14:57:18;10.20;99.90
53310;DHT22;39197;53.200;5.792;2023-04-25T14:59:44;10.10;99.90
53310;DHT22;39197;53.200;5.792;2023-04-25T15:02:10;10.00;99.90
53310;DHT22;39197;53.200;5.792;2023-04-25T15:04:36;10.40;99.90
53310;DHT22;39197;53.200;5.792;2023-04-25T15:07:02;10.80;99.90
53310;DHT22;39197;53.200;5.792;2023-04-25T15:09:28;11.00;99.90
53310;DHT22;39197;53.200;5.792;2023-04-25T15:11:53;11.10;99.90
53310;DHT22;39197;53.200;5.792;2023-04-25T15:14:19;11.40;99.90
53310;DHT22;39197;53.200;5.792;2023-04-25T15:16:45;10.40;99.90
53310;DHT22;39197;53.200;5.792;2023-04-25T15:19:11;10.40;99.90
53310;DHT22;39197;53.200;5.792;2023-04-25T15:21:36;10.10;99.90
53310;DHT22;39197;53.200;5.792;2023-04-25T15:24:02;9.90;99.90
53310;DHT22;39197;53.200;5.792;2023-04-25T15:26:28;9.70;99.90
53310;DHT22;39197;53.200;5.792;2023-04-25T15:28:54;9.30;99.90
53310;DHT22;39197;53.200;5.792;2023-04-25T15:31:19;9.00;99.90
53310;DHT22;39197;53.200;5.792;2023-04-25T15:33:45;9.10;99.90
53310;DHT22;39197;53.200;5.792;2023-04-25T15:36:11;8.60;99.90
53310;DHT22;39197;53.200;5.792;2023-04-25T15:38:37;8.70;99.90
53310;DHT22;39197;53.200;5.792;2023-04-25T15:41:02;9.10;99.90
53310;DHT22;39197;53.200;5.792;2023-04-25T15:43:28;9.30;99.90
53310;DHT22;39197;53.200;5.792;2023-04-25T15:45:54;9.70;99.90